Time;durP1;ratioP1;P1;durP2;ratioP2;P2;SDS_P1;SDS_P2;PMS_P1;PMS_P2;Temp;Humidity;BMP_temperature;BMP_pressure;BME280_temperature;BME280_humidity;BME280_pressure;Samples;Min_cycle;Max_cycle;Signal;HPM_P1;HPM_P2
2023/08/03 00:00:33;;;;;;;6.47;3.20;;;;;;;14.36;100.00;98833.28;5027923;28;20120;-74
2023/08/03 00:02:58;;;;;;;4.55;2.80;;;;;;;14.38;100.00;98831.31;5041081;28;20033;-75
2023/08/03 00:05:24;;;;;;;5.78;2.70;;;;;;;14.39;100.00;98856.25;5025041;28;20408;-76
2023/08/03 00:07:50;;;;;;;4.60;2.70;;;;;;;14.41;100.00;98856.91;5032691;28;20037;-74
2023/08/03 00:10:17;;;;;;;7.30;3.03;;;;;;;14.37;100.00;98843.00;5028902;28;20036;-74
2023/08/03 00:12:44;;;;;;;5.63;3.53;;;;;;;14.41;100.00;98851.56;5036315;28;20062;-74
2023/08/03 00:15:10;;;;;;;7.43;4.20;;;;;;;14.39;100.00;98853.56;5033407;28;20032;-74
2023/08/03 00:17:36;;;;;;;8.38;5.03;;;;;;;14.42;100.00;98863.94;5025311;28;20018;-73
2023/08/03 00:20:04;;;;;;;9.00;5.03;;;;;;;14.41;100.00;98860.44;5030124;28;20514;-73
2023/08/03 00:22:33;;;;;;;8.07;5.55;;;;;;;14.38;100.00;98855.41;5025051;28;20128;-73
2023/08/03 00:24:58;;;;;;;7.95;5.90;;;;;;;14.40;100.00;98871.28;5030719;28;20107;-72
2023/08/03 00:27:25;;;;;;;11.48;6.40;;;;;;;14.39;100.00;98861.59;5043439;28;20132;-74
2023/08/03 00:29:50;;;;;;;9.90;6.63;;;;;;;14.38;100.00;98859.88;5025906;28;20082;-73
2023/08/03 00:32:16;;;;;;;13.57;6.95;;;;;;;14.39;100.00;98859.75;5025881;28;20037;-74
2023/08/03 00:34:41;;;;;;;11.70;7.15;;;;;;;14.39;100.00;98870.47;5023401;28;20033;-74
2023/08/03 00:37:06;;;;;;;15.32;7.90;;;;;;;14.41;100.00;98865.78;5032832;28;20037;-73
2023/08/03 00:39:32;;;;;;;11.30;7.68;;;;;;;14.42;100.00;98872.84;5024725;28;20231;-75
2023/08/03 00:41:57;;;;;;;11.25;7.88;;;;;;;14.43;100.00;98877.19;5030476;28;20044;-76
2023/08/03 00:44:23;;;;;;;15.45;8.90;;;;;;;14.43;100.00;98877.19;5025951;28;20066;-74
2023/08/03 00:46:48;;;;;;;15.25;8.73;;;;;;;14.40;100.00;98885.50;5033387;28;20024;-74
2023/08/03 00:49:14;;;;;;;14.63;8.40;;;;;;;14.46;100.00;98894.78;5032068;28;20628;-76
2023/08/03 00:51:39;;;;;;;12.30;8.57;;;;;;;14.46;100.00;98902.81;5022481;28;20025;-73
2023/08/03 00:54:07;;;;;;;14.65;8.82;;;;;;;14.42;100.00;98904.97;5026392;28;20033;-74
2023/08/03 00:56:36;;;;;;;15.55;9.00;;;;;;;14.47;100.00;98914.38;5024718;28;20229;-73
2023/08/03 00:59:06;;;;;;;13.68;9.20;;;;;;;14.48;100.00;98921.41;5021514;28;20083;-73
2023/08/03 01:01:32;;;;;;;14.90;9.93;;;;;;;14.49;100.00;98917.75;5029440;28;20032;-74
2023/08/03 01:03:57;;;;;;;16.17;10.00;;;;;;;14.47;100.00;98923.25;5027164;28;20526;-72
2023/08/03 01:06:23;;;;;;;14.20;9.55;;;;;;;14.46;100.00;98929.56;5030291;28;20037;-75
2023/08/03 01:08:48;;;;;;;16.25;9.73;;;;;;;14.50;100.00;98939.03;5020381;28;20039;-72
2023/08/03 01:11:14;;;;;;;11.95;9.95;;;;;;;14.49;100.00;98942.69;5024308;28;20033;-71
2023/08/03 01:13:39;;;;;;;12.25;8.80;;;;;;;14.49;100.00;98933.81;5022746;28;20075;-74
2023/08/03 01:16:11;;;;;;;13.90;9.40;;;;;;;14.50;100.00;98943.53;5023272;28;20511;-70
2023/08/03 01:18:37;;;;;;;10.52;8.95;;;;;;;14.51;100.00;98953.28;5021990;28;20117;-71
2023/08/03 01:21:06;;;;;;;13.65;9.35;;;;;;;14.52;100.00;98960.31;5023155;28;20100;-71
2023/08/03 01:23:33;;;;;;;13.00;8.10;;;;;;;14.47;100.00;98962.56;5022113;28;20041;-74
2023/08/03 01:25:58;;;;;;;13.10;7.93;;;;;;;14.49;100.00;98956.06;5020155;28;20079;-72
2023/08/03 01:28:23;;;;;;;13.02;7.70;;;;;;;14.52;100.00;98962.97;5023361;28;20017;-72
2023/08/03 01:30:49;;;;;;;12.55;6.70;;;;;;;14.50;100.00;98972.97;5023051;28;20037;-71
2023/08/03 01:33:14;;;;;;;10.95;6.50;;;;;;;14.48;100.00;98974.94;5022853;28;20185;-72
2023/08/03 01:35:39;;;;;;;13.05;6.80;;;;;;;14.50;100.00;98989.88;5023209;28;20085;-71
2023/08/03 01:38:05;;;;;;;12.55;6.07;;;;;;;14.52;100.00;98987.06;5022330;28;20025;-71
2023/08/03 01:40:31;;;;;;;12.93;5.70;;;;;;;14.51;100.00;98986.25;5030440;28;20209;-72
2023/08/03 01:42:56;;;;;;;9.15;5.50;;;;;;;14.49;100.00;98988.19;5020647;28;20030;-72
2023/08/03 01:45:21;;;;;;;10.75;5.35;;;;;;;14.48;100.00;98981.13;5021700;28;20029;-71
2023/08/03 01:47:47;;;;;;;11.02;4.95;;;;;;;14.53;100.00;98988.75;5028193;28;20036;-71
2023/08/03 01:50:12;;;;;;;9.40;5.20;;;;;;;14.51;100.00;98999.63;5038128;28;20029;-72
2023/08/03 01:52:37;;;;;;;10.68;5.43;;;;;;;14.52;100.00;98990.59;5030605;28;20151;-71
2023/08/03 01:55:03;;;;;;;11.50;5.97;;;;;;;14.53;100.00;99004.81;5026671;28;20079;-72
2023/08/03 01:57:28;;;;;;;11.50;5.75;;;;;;;14.52;100.00;99006.66;5035930;28;20087;-73
2023/08/03 01:59:55;;;;;;;11.63;6.57;;;;;;;14.51;100.00;98990.75;5037408;28;20128;-71
2023/08/03 02:02:20;;;;;;;16.20;6.97;;;;;;;14.52;100.00;99005.81;5021462;28;20410;-73
2023/08/03 02:04:45;;;;;;;18.88;7.63;;;;;;;14.48;100.00;98991.00;5031004;28;20382;-73
2023/08/03 02:07:37;;;;;;;12.63;7.15;;;;;;;14.50;100.00;98992.56;5030880;28;20448;-73
2023/08/03 02:10:03;;;;;;;17.13;8.02;;;;;;;14.50;100.00;98997.06;5023185;28;20025;-74
2023/08/03 02:12:28;;;;;;;20.88;9.23;;;;;;;14.47;100.00;98986.66;5026844;28;20565;-75
2023/08/03 02:14:58;;;;;;;21.70;9.65;;;;;;;14.50;100.00;98995.22;5027570;28;20063;-74
2023/08/03 02:17:23;;;;;;;20.00;9.55;;;;;;;14.47;100.00;98990.16;5027872;28;20075;-74
2023/08/03 02:19:48;;;;;;;23.98;10.30;;;;;;;14.43;100.00;98984.25;5024132;28;20041;-74
2023/08/03 02:22:14;;;;;;;24.77;10.50;;;;;;;14.41;100.00;98983.53;5027333;28;20228;-75
2023/08/03 02:24:39;;;;;;;25.60;10.85;;;;;;;14.47;100.00;99000.88;5027250;28;20039;-74
2023/08/03 02:27:04;;;;;;;21.77;11.30;;;;;;;14.45;100.00;98990.28;5027605;28;20044;-74
2023/08/03 02:29:30;;;;;;;28.75;12.13;;;;;;;14.48;100.00;98999.88;5028086;28;20157;-73
2023/08/03 02:31:55;;;;;;;33.15;11.55;;;;;;;14.44;100.00;98999.31;5028172;28;20499;-74
2023/08/03 02:34:20;;;;;;;23.73;11.45;;;;;;;14.45;100.00;98992.97;5027801;28;20068;-73
2023/08/03 02:36:46;;;;;;;31.80;12.35;;;;;;;14.40;100.00;98986.38;5025404;28;20040;-74
2023/08/03 02:39:11;;;;;;;30.23;11.63;;;;;;;14.44;100.00;98995.81;5025510;28;20029;-73
2023/08/03 02:41:38;;;;;;;24.45;11.13;;;;;;;14.42;100.00;98989.75;5027103;28;20029;-74
2023/08/03 02:44:04;;;;;;;22.33;10.63;;;;;;;14.42;100.00;98995.09;5030942;28;20029;-72
2023/08/03 02:46:30;;;;;;;25.88;10.82;;;;;;;14.40;100.00;99003.28;5031249;28;20179;-73
2023/08/03 02:48:56;;;;;;;28.17;11.10;;;;;;;14.37;100.00;98998.22;5027036;28;20053;-73
2023/08/03 02:51:21;;;;;;;26.58;11.32;;;;;;;14.37;100.00;98990.19;5026610;28;20029;-74
2023/08/03 02:53:46;;;;;;;23.50;11.68;;;;;;;14.36;100.00;98985.00;5030952;28;20025;-74
2023/08/03 02:56:12;;;;;;;22.95;10.85;;;;;;;14.36;100.00;98995.69;5023639;28;20029;-73
2023/08/03 02:58:37;;;;;;;27.88;11.73;;;;;;;14.34;100.00;98985.16;5037386;28;20044;-71
2023/08/03 03:01:04;;;;;;;27.95;11.68;;;;;;;14.33;100.00;98999.50;5035529;28;20331;-72
2023/08/03 03:03:30;;;;;;;26.42;11.68;;;;;;;14.35;100.00;98999.38;5026020;28;20048;-71
2023/08/03 03:05:55;;;;;;;20.75;10.80;;;;;;;14.31;100.00;98996.16;5036125;28;20024;-72
2023/08/03 03:08:21;;;;;;;28.95;11.02;;;;;;;14.35;100.00;99010.06;5033149;28;20061;-72
2023/08/03 03:10:46;;;;;;;26.45;11.07;;;;;;;14.35;100.00;99007.41;5035009;28;20411;-72
2023/08/03 03:13:11;;;;;;;26.98;11.15;;;;;;;14.32;100.00;99013.88;5030467;28;20033;-71
2023/08/03 03:15:37;;;;;;;26.77;10.52;;;;;;;14.32;100.00;98997.81;5043550;28;20032;-71
2023/08/03 03:18:02;;;;;;;21.67;10.55;;;;;;;14.34;100.00;99019.09;5034228;28;20194;-72
2023/08/03 03:20:27;;;;;;;23.05;10.23;;;;;;;14.32;100.00;99029.94;5023891;28;20509;-70
2023/08/03 03:22:53;;;;;;;21.60;9.95;;;;;;;14.30;100.00;99018.56;5023063;28;20111;-71
2023/08/03 03:25:18;;;;;;;19.50;10.57;;;;;;;14.30;100.00;99026.56;5025722;28;20029;-71
2023/08/03 03:27:43;;;;;;;21.88;10.48;;;;;;;14.30;100.00;99023.91;5027215;28;20021;-72
2023/08/03 03:30:09;;;;;;;27.88;10.63;;;;;;;14.32;100.00;99045.16;5020503;28;20026;-72
2023/08/03 03:32:34;;;;;;;25.75;11.00;;;;;;;14.32;100.00;99031.78;5034829;28;20040;-72
2023/08/03 03:34:59;;;;;;;22.33;10.45;;;;;;;14.31;100.00;99035.44;5030693;28;20021;-73
2023/08/03 03:37:25;;;;;;;22.88;10.48;;;;;;;14.30;100.00;99044.47;5044184;28;20028;-71
2023/08/03 03:39:50;;;;;;;24.95;11.35;;;;;;;14.30;100.00;99044.47;5028057;28;20140;-73
2023/08/03 03:42:16;;;;;;;23.88;11.73;;;;;;;14.23;100.00;99046.03;5032715;28;20056;-74
2023/08/03 03:44:41;;;;;;;22.42;11.57;;;;;;;14.29;100.00;99056.97;5029907;28;20036;-74
2023/08/03 03:47:06;;;;;;;17.83;10.65;;;;;;;14.27;100.00;99063.50;5023542;28;20137;-74
2023/08/03 03:49:32;;;;;;;20.10;10.70;;;;;;;14.25;100.00;99055.59;5029544;28;20024;-72
2023/08/03 03:51:57;;;;;;;21.17;11.05;;;;;;;14.19;100.00;99049.00;5032091;28;20444;-72
2023/08/03 03:54:22;;;;;;;22.05;9.93;;;;;;;14.21;100.00;99056.84;5036296;28;20591;-73
2023/08/03 03:56:48;;;;;;;21.92;9.50;;;;;;;14.25;100.00;99070.78;5028688;28;20090;-72
2023/08/03 03:59:13;;;;;;;21.55;10.50;;;;;;;14.26;100.00;99069.84;5035890;28;20336;-74
2023/08/03 04:01:39;;;;;;;21.02;10.75;;;;;;;14.25;100.00;99071.63;5024107;28;20037;-72
2023/08/03 04:04:04;;;;;;;19.17;9.88;;;;;;;14.23;100.00;99068.28;5027645;28;20053;-73
2023/08/03 04:06:29;;;;;;;19.75;9.95;;;;;;;14.20;100.00;99066.72;5034941;28;20036;-73
2023/08/03 04:08:55;;;;;;;20.92;9.10;;;;;;;14.19;100.00;99088.28;5031524;28;20022;-73
2023/08/03 04:11:21;;;;;;;18.23;9.02;;;;;;;14.22;100.00;99081.81;5036724;28;20044;-71
2023/08/03 04:13:46;;;;;;;20.63;10.35;;;;;;;14.24;100.00;99083.34;5029865;28;20057;-73
2023/08/03 04:16:11;;;;;;;21.60;9.45;;;;;;;14.23;100.00;99078.97;5037702;28;21053;-73
2023/08/03 04:18:38;;;;;;;19.20;9.18;;;;;;;14.23;100.00;99096.88;5036031;28;20323;-74
2023/08/03 04:21:04;;;;;;;21.10;10.10;;;;;;;14.26;100.00;99109.97;5029667;28;20495;-73
2023/08/03 04:23:29;;;;;;;16.95;9.15;;;;;;;14.26;100.00;99108.13;5027710;28;20057;-74
2023/08/03 04:25:54;;;;;;;20.00;10.02;;;;;;;14.27;100.00;99107.13;5031527;28;20116;-72
2023/08/03 04:28:20;;;;;;;20.63;9.57;;;;;;;14.25;100.00;99109.09;5033923;28;20112;-73
2023/08/03 04:30:45;;;;;;;19.88;9.68;;;;;;;14.26;100.00;99107.28;5029203;28;20024;-73
2023/08/03 04:33:11;;;;;;;19.25;10.30;;;;;;;14.30;100.00;99122.91;5030015;28;20065;-73
2023/08/03 04:35:36;;;;;;;20.38;9.98;;;;;;;14.30;100.00;99119.41;5029314;28;20053;-72
2023/08/03 04:38:01;;;;;;;20.55;10.30;;;;;;;14.28;100.00;99119.53;5027095;28;20063;-73
2023/08/03 04:40:27;;;;;;;20.92;10.40;;;;;;;14.29;100.00;99121.22;5033018;28;20078;-72
2023/08/03 04:42:52;;;;;;;17.85;9.93;;;;;;;14.26;100.00;99116.16;5027715;28;20109;-74
2023/08/03 04:45:17;;;;;;;18.02;8.93;;;;;;;14.21;100.00;99129.09;5019424;28;20037;-73
2023/08/03 04:47:43;;;;;;;15.48;8.38;;;;;;;14.28;100.00;99140.94;5022783;28;20049;-74
2023/08/03 04:50:08;;;;;;;16.23;8.52;;;;;;;14.28;100.00;99138.25;5027168;28;20032;-74
2023/08/03 04:52:33;;;;;;;14.13;8.02;;;;;;;14.27;100.00;99133.06;5036325;28;20061;-73
2023/08/03 04:54:59;;;;;;;10.15;7.22;;;;;;;14.29;100.00;99145.28;5033373;28;20043;-72
2023/08/03 04:57:24;;;;;;;9.80;6.45;;;;;;;14.24;100.00;99150.22;5034801;28;20079;-73
2023/08/03 04:59:50;;;;;;;12.98;5.60;;;;;;;14.25;100.00;99153.75;5022900;28;20103;-72
2023/08/03 05:02:15;;;;;;;9.43;5.53;;;;;;;14.17;100.00;99151.78;5030871;28;20144;-73
2023/08/03 05:04:40;;;;;;;10.10;5.70;;;;;;;14.24;100.00;99168.97;5023780;28;20028;-73
2023/08/03 05:07:06;;;;;;;8.40;5.60;;;;;;;14.25;100.00;99161.78;5030046;28;20040;-72
2023/08/03 05:09:31;;;;;;;9.77;6.00;;;;;;;14.23;100.00;99178.00;5024362;28;20033;-72
2023/08/03 05:11:57;;;;;;;8.50;5.80;;;;;;;14.24;100.00;99173.47;5029840;28;20036;-73
2023/08/03 05:14:22;;;;;;;8.18;5.82;;;;;;;14.26;100.00;99184.91;5024660;28;20065;-72
2023/08/03 05:16:47;;;;;;;11.52;5.82;;;;;;;14.26;100.00;99200.97;5032784;28;20107;-72
2023/08/03 05:19:13;;;;;;;9.75;6.75;;;;;;;14.28;100.00;99209.66;5029373;28;20117;-72
2023/08/03 05:21:38;;;;;;;8.25;7.18;;;;;;;14.31;100.00;99202.22;5031778;28;20032;-73
2023/08/03 05:24:04;;;;;;;10.82;9.38;;;;;;;14.33;100.00;99208.25;5030931;28;20537;-72
2023/08/03 05:26:36;;;;;;;12.55;9.73;;;;;;;14.40;100.00;99201.34;5027599;28;20029;-71
2023/08/03 05:29:02;;;;;;;13.20;10.27;;;;;;;14.41;100.00;99208.38;5023339;28;20574;-72
2023/08/03 05:31:28;;;;;;;13.35;9.60;;;;;;;14.45;100.00;99219.66;5030917;28;20043;-73
2023/08/03 05:33:56;;;;;;;14.98;10.40;;;;;;;14.40;100.00;99213.91;5021015;28;20040;-71
2023/08/03 05:36:23;;;;;;;12.20;8.85;;;;;;;14.31;100.00;99220.09;5026054;28;20555;-72
2023/08/03 05:38:52;;;;;;;12.48;8.73;;;;;;;14.43;100.00;99240.38;5019889;28;20033;-73
2023/08/03 05:41:22;;;;;;;14.30;8.02;;;;;;;14.39;100.00;99239.81;5023607;28;20025;-73
2023/08/03 05:43:47;;;;;;;10.68;7.80;;;;;;;14.33;100.00;99229.66;5030236;28;20241;-71
2023/08/03 05:46:15;;;;;;;11.65;7.75;;;;;;;14.42;100.00;99247.56;5022697;28;20018;-71
2023/08/03 05:48:41;;;;;;;10.23;7.93;;;;;;;14.47;100.00;99248.97;5019063;28;20060;-72
2023/08/03 05:51:09;;;;;;;11.35;7.65;;;;;;;14.46;100.00;99248.13;5023403;28;20083;-70
2023/08/03 05:53:34;;;;;;;9.55;7.53;;;;;;;14.49;100.00;99253.22;5015036;28;20104;-72
2023/08/03 05:56:00;;;;;;;9.75;7.20;;;;;;;14.50;100.00;99256.75;5011747;28;20644;-72
2023/08/03 05:58:28;;;;;;;7.65;6.57;;;;;;;14.55;100.00;99265.22;5026456;28;20083;-73
2023/08/03 06:00:53;;;;;;;8.27;7.32;;;;;;;14.53;100.00;99267.19;5022156;28;20593;-71
2023/08/03 06:03:19;;;;;;;10.57;7.90;;;;;;;14.52;100.00;99270.84;5027665;28;20103;-71
2023/08/03 06:05:45;;;;;;;10.50;7.57;;;;;;;14.56;100.00;99278.44;5021466;28;20451;-72
2023/08/03 06:08:18;;;;;;;10.25;7.43;;;;;;;14.58;100.00;99289.00;5024095;28;20028;-72
2023/08/03 06:10:48;;;;;;;9.88;6.35;;;;;;;14.44;100.00;99285.75;5017722;28;20460;-72
2023/08/03 06:13:16;;;;;;;12.38;6.88;;;;;;;14.53;100.00;99292.13;5025171;28;20108;-72
2023/08/03 06:15:43;;;;;;;12.52;6.00;;;;;;;14.52;100.00;99286.91;5026910;28;20025;-71
2023/08/03 06:18:14;;;;;;;10.60;6.13;;;;;;;14.55;100.00;99292.84;5029564;28;20039;-70
2023/08/03 06:20:43;;;;;;;13.13;5.90;;;;;;;14.58;100.00;99305.06;5022839;28;20026;-68
2023/08/03 06:23:16;;;;;;;9.98;5.43;;;;;;;14.54;100.00;99301.81;5018589;28;20076;-70
2023/08/03 06:25:42;;;;;;;8.40;4.93;;;;;;;14.49;100.00;99303.25;5022733;28;20037;-68
2023/08/03 06:28:10;;;;;;;12.75;5.38;;;;;;;14.43;100.00;99312.66;5031848;28;20056;-68
2023/08/03 06:30:35;;;;;;;12.38;5.43;;;;;;;14.44;100.00;99309.00;5033197;28;20030;-69
2023/08/03 06:33:01;;;;;;;13.50;7.03;;;;;;;14.43;100.00;99310.81;5029433;28;20032;-69
2023/08/03 06:35:41;;;;;;;9.52;6.43;;;;;;;14.43;100.00;99315.34;5029549;28;20321;-69
2023/08/03 06:38:10;;;;;;;14.43;7.95;;;;;;;14.39;100.00;99309.41;5022724;28;20061;-69
2023/08/03 06:40:39;;;;;;;12.68;8.55;;;;;;;14.42;100.00;99313.63;5024863;28;20013;-69
2023/08/03 06:43:04;;;;;;;11.20;8.98;;;;;;;14.39;100.00;99320.13;5014055;28;20205;-68
2023/08/03 06:45:31;;;;;;;11.15;8.93;;;;;;;14.43;100.00;99331.41;5033894;28;20094;-67
2023/08/03 06:47:57;;;;;;;13.10;8.90;;;;;;;14.49;100.00;99346.06;5021991;28;20371;-68
2023/08/03 06:50:23;;;;;;;10.52;8.98;;;;;;;14.52;100.00;99337.78;5027524;28;20479;-67
2023/08/03 06:52:48;;;;;;;13.13;7.45;;;;;;;14.51;100.00;99328.91;5026641;28;20164;-68
2023/08/03 06:55:13;;;;;;;11.27;8.00;;;;;;;14.60;100.00;99346.81;5028512;28;20048;-68
2023/08/03 06:57:39;;;;;;;10.23;7.35;;;;;;;14.59;100.00;99350.47;5029851;28;20021;-68
2023/08/03 07:00:05;;;;;;;13.73;7.35;;;;;;;14.57;100.00;99355.09;5031223;28;20025;-69
2023/08/03 07:02:31;;;;;;;11.07;6.93;;;;;;;14.59;100.00;99362.97;5028203;28;20275;-69
2023/08/03 07:04:56;;;;;;;12.82;7.13;;;;;;;14.63;100.00;99364.41;5026759;28;20244;-67
2023/08/03 07:07:21;;;;;;;13.88;7.70;;;;;;;14.69;100.00;99355.81;5034659;28;20029;-68
2023/08/03 07:09:49;;;;;;;11.75;6.80;;;;;;;14.90;100.00;99379.78;5029468;28;20029;-68
2023/08/03 07:12:15;;;;;;;12.35;6.90;;;;;;;15.07;100.00;99378.22;5017346;28;20124;-67
2023/08/03 07:14:41;;;;;;;8.65;6.60;;;;;;;15.15;100.00;99387.25;5026657;28;20450;-70
2023/08/03 07:17:07;;;;;;;11.85;6.88;;;;;;;15.24;100.00;99385.53;5028968;28;20068;-68
2023/08/03 07:19:32;;;;;;;13.40;8.38;;;;;;;15.53;100.00;99384.63;5027298;28;20025;-68
2023/08/03 07:21:57;;;;;;;9.80;7.10;;;;;;;15.67;100.00;99392.25;5034433;28;20041;-68
2023/08/03 07:24:23;;;;;;;10.70;6.63;;;;;;;15.57;100.00;99397.63;5027700;28;20542;-68
2023/08/03 07:26:49;;;;;;;11.45;6.25;;;;;;;15.32;100.00;99390.19;5035944;28;20124;-68
2023/08/03 07:29:15;;;;;;;8.70;5.97;;;;;;;15.30;100.00;99406.44;5030934;28;20305;-68
2023/08/03 07:31:40;;;;;;;11.27;5.45;;;;;;;15.31;100.00;99405.44;5030654;28;20030;-68
2023/08/03 07:34:06;;;;;;;9.10;4.97;;;;;;;15.29;100.00;99417.28;5029682;28;20476;-68
2023/08/03 07:36:31;;;;;;;9.70;4.57;;;;;;;15.28;100.00;99416.44;5036901;28;20543;-68
2023/08/03 07:38:56;;;;;;;7.90;4.40;;;;;;;15.28;100.00;99411.06;5026808;28;20557;-68
2023/08/03 07:41:22;;;;;;;10.15;4.70;;;;;;;15.37;100.00;99412.88;5031403;28;20400;-68
2023/08/03 07:43:48;;;;;;;6.25;4.05;;;;;;;15.37;100.00;99423.59;5024280;28;20039;-68
2023/08/03 07:46:13;;;;;;;8.02;4.07;;;;;;;15.32;100.00;99422.34;5029305;28;20036;-70
2023/08/03 07:48:39;;;;;;;9.32;4.28;;;;;;;15.39;100.00;99426.16;5032177;28;20511;-70
2023/08/03 07:51:15;;;;;;;7.38;4.20;;;;;;;15.36;100.00;99429.13;5022237;28;20033;-69
2023/08/03 07:53:40;;;;;;;11.77;4.55;;;;;;;15.30;100.00;99433.22;5031564;28;20025;-69
2023/08/03 07:56:24;;;;;;;9.18;4.13;;;;;;;15.41;100.00;99441.09;5026970;28;20141;-70
2023/08/03 07:58:51;;;;;;;8.43;3.92;;;;;;;15.54;100.00;99440.78;5018471;28;20372;-68
2023/08/03 08:01:18;;;;;;;7.90;3.60;;;;;;;15.55;100.00;99436.28;5027997;28;20025;-68
2023/08/03 08:03:43;;;;;;;8.60;3.45;;;;;;;15.58;100.00;99433.31;5031362;28;20095;-71
2023/08/03 08:06:10;;;;;;;9.02;3.10;;;;;;;15.62;100.00;99456.19;5027061;28;20179;-69
2023/08/03 08:08:37;;;;;;;8.75;3.35;;;;;;;15.51;100.00;99459.88;5026670;28;20037;-68
2023/08/03 08:11:03;;;;;;;11.70;3.42;;;;;;;15.48;100.00;99470.03;5024150;28;20025;-68
2023/08/03 08:13:28;;;;;;;12.27;3.15;;;;;;;15.54;100.00;99462.25;5017630;28;20177;-69
2023/08/03 08:15:59;;;;;;;7.97;3.08;;;;;;;15.59;100.00;99469.88;5022398;28;20025;-68
2023/08/03 08:18:24;;;;;;;10.70;3.30;;;;;;;15.63;100.00;99466.78;5020916;28;20044;-68
2023/08/03 08:21:04;;;;;;;8.40;3.05;;;;;;;15.67;100.00;99468.22;5019897;28;20017;-68
2023/08/03 08:23:30;;;;;;;7.55;2.53;;;;;;;15.59;100.00;99489.50;5021006;28;20026;-68
2023/08/03 08:25:56;;;;;;;6.40;2.58;;;;;;;15.61;100.00;99489.34;5026250;28;20028;-67
2023/08/03 08:28:22;;;;;;;7.13;2.42;;;;;;;15.62;100.00;99504.44;5021609;28;20627;-68
2023/08/03 08:30:48;;;;;;;8.48;2.80;;;;;;;15.48;100.00;99496.84;5018080;28;20029;-68
2023/08/03 08:33:18;;;;;;;6.65;2.47;;;;;;;15.50;100.00;99513.63;5017171;28;20060;-68
2023/08/03 08:35:45;;;;;;;6.65;2.28;;;;;;;15.41;100.00;99518.00;5021403;28;20083;-68
2023/08/03 08:38:12;;;;;;;8.15;2.55;;;;;;;15.42;100.00;99517.91;5027009;28;20028;-68
2023/08/03 08:40:41;;;;;;;7.25;2.15;;;;;;;15.34;100.00;99536.50;5026306;28;20056;-68
2023/08/03 08:43:07;;;;;;;7.65;2.78;;;;;;;15.26;100.00;99539.03;5021826;28;20033;-68
2023/08/03 08:45:34;;;;;;;9.32;2.72;;;;;;;15.17;100.00;99535.38;5026726;28;20115;-67
2023/08/03 08:48:00;;;;;;;9.10;2.80;;;;;;;15.13;100.00;99544.69;5031212;28;20235;-67
2023/08/03 08:50:26;;;;;;;11.00;2.75;;;;;;;15.19;100.00;99533.38;5026295;28;20044;-68
2023/08/03 08:52:52;;;;;;;7.70;2.40;;;;;;;15.23;100.00;99549.19;5022099;28;20025;-67
2023/08/03 08:55:22;;;;;;;6.72;2.55;;;;;;;15.49;100.00;99554.84;5017285;28;20036;-68
2023/08/03 08:57:48;;;;;;;9.60;2.10;;;;;;;15.40;100.00;99561.91;5031864;28;20559;-68
2023/08/03 09:00:15;;;;;;;7.43;2.15;;;;;;;15.58;100.00;99557.53;5021891;28;20476;-68
2023/08/03 09:02:40;;;;;;;7.18;2.42;;;;;;;15.64;100.00;99562.38;5024474;28;20492;-68
2023/08/03 09:05:09;;;;;;;4.40;2.05;;;;;;;15.54;100.00;99574.03;5024896;28;20040;-67
2023/08/03 09:07:34;;;;;;;5.05;1.70;;;;;;;15.39;100.00;99565.59;5024122;28;20479;-67
2023/08/03 09:10:03;;;;;;;6.60;1.80;;;;;;;15.35;100.00;99570.38;5018085;28;20037;-67
2023/08/03 09:12:29;;;;;;;4.20;1.98;;;;;;;15.31;100.00;99577.00;5021706;28;20405;-68
2023/08/03 09:14:58;;;;;;;5.25;2.20;;;;;;;15.20;100.00;99569.06;5019119;28;20149;-68
2023/08/03 09:17:24;;;;;;;5.60;2.53;;;;;;;15.12;100.00;99587.66;5014964;28;20034;-68
2023/08/03 09:19:50;;;;;;;6.40;2.17;;;;;;;15.15;100.00;99600.81;5023034;28;20120;-68
2023/08/03 09:22:17;;;;;;;5.97;2.92;;;;;;;15.19;100.00;99610.28;5021935;28;20094;-68
2023/08/03 09:24:46;;;;;;;7.55;2.60;;;;;;;15.14;100.00;99608.00;5024002;28;20025;-68
2023/08/03 09:27:18;;;;;;;7.88;2.78;;;;;;;15.18;100.00;99612.09;5023487;28;20025;-68
2023/08/03 09:29:43;;;;;;;7.65;2.90;;;;;;;15.19;100.00;99626.34;5020210;28;20108;-68
2023/08/03 09:32:09;;;;;;;4.43;2.80;;;;;;;15.27;100.00;99623.00;5025515;28;20044;-67
2023/08/03 09:34:35;;;;;;;4.38;2.60;;;;;;;15.30;100.00;99630.72;5021168;28;20033;-69
2023/08/03 09:37:02;;;;;;;5.85;3.13;;;;;;;15.35;100.00;99642.75;5027441;28;20025;-68
2023/08/03 09:39:32;;;;;;;7.25;2.92;;;;;;;15.22;100.00;99641.31;5011267;28;20135;-69
2023/08/03 09:41:59;;;;;;;8.35;3.00;;;;;;;15.23;100.00;99656.41;5029636;28;20029;-67
2023/08/03 09:44:28;;;;;;;8.73;3.47;;;;;;;15.29;100.00;99658.53;5017195;28;20049;-69
2023/08/03 09:46:54;;;;;;;11.00;3.63;;;;;;;15.46;100.00;99657.84;5032192;28;20021;-68
2023/08/03 09:49:20;;;;;;;10.95;4.10;;;;;;;15.56;100.00;99647.16;5023726;28;20056;-69
2023/08/03 09:51:50;;;;;;;7.85;4.22;;;;;;;15.62;100.00;99668.91;5027182;28;20345;-69
2023/08/03 09:54:32;;;;;;;6.60;3.92;;;;;;;15.75;100.00;99670.50;5028824;28;20483;-68
2023/08/03 09:57:00;;;;;;;10.50;3.83;;;;;;;15.67;100.00;99685.47;5023079;28;20161;-69
2023/08/03 09:59:30;;;;;;;7.45;3.55;;;;;;;15.63;100.00;99678.66;5028457;28;20029;-68
2023/08/03 10:01:59;;;;;;;7.38;3.60;;;;;;;15.71;100.00;99686.03;5011634;28;20124;-68
2023/08/03 10:04:31;;;;;;;8.80;3.65;;;;;;;15.66;100.00;99690.97;5014016;28;20025;-68
2023/08/03 10:07:02;;;;;;;9.13;3.35;;;;;;;15.56;100.00;99700.81;5012618;28;20037;-70
2023/08/03 10:09:36;;;;;;;7.85;3.58;;;;;;;15.51;100.00;99709.28;5011684;28;20032;-68
2023/08/03 10:12:06;;;;;;;7.93;3.50;;;;;;;15.41;100.00;99728.00;5016352;28;20041;-67
2023/08/03 10:14:36;;;;;;;8.00;3.72;;;;;;;15.38;100.00;99730.09;5020392;28;21548;-69
2023/08/03 10:17:04;;;;;;;5.97;2.55;;;;;;;15.31;100.00;99719.09;5013699;28;20082;-68
2023/08/03 10:19:31;;;;;;;7.43;2.92;;;;;;;15.30;100.00;99721.88;5015946;28;20163;-67
2023/08/03 10:21:57;;;;;;;4.78;2.85;;;;;;;15.38;100.00;99727.41;5015867;28;20475;-69
2023/08/03 10:24:23;;;;;;;5.82;2.88;;;;;;;15.52;100.00;99724.38;5014306;28;20572;-68
2023/08/03 10:26:54;;;;;;;5.38;2.50;;;;;;;15.54;100.00;99729.59;5012043;28;20026;-67
2023/08/03 10:29:52;;;;;;;5.03;2.72;;;;;;;15.61;100.00;99736.09;5021554;28;20028;-67
2023/08/03 10:32:19;;;;;;;5.07;2.80;;;;;;;15.69;100.00;99736.31;5023588;28;20064;-68
2023/08/03 10:34:44;;;;;;;5.30;2.45;;;;;;;15.74;100.00;99741.25;5018772;28;20033;-68
2023/08/03 10:37:13;;;;;;;6.22;3.30;;;;;;;16.12;100.00;99735.94;5022356;28;20043;-68
2023/08/03 10:39:49;;;;;;;3.58;3.00;;;;;;;16.48;100.00;99738.06;5023392;28;20048;-67
2023/08/03 10:42:32;;;;;;;4.93;3.30;;;;;;;16.76;100.00;99750.66;5022989;28;20394;-68
2023/08/03 10:45:22;;;;;;;6.28;3.10;;;;;;;16.92;100.00;99750.88;5031078;28;20156;-67
2023/08/03 10:47:48;;;;;;;4.15;2.45;;;;;;;16.82;100.00;99752.75;5027527;28;20041;-68
2023/08/03 10:50:14;;;;;;;5.03;2.90;;;;;;;16.87;100.00;99763.91;5049048;28;20127;-67
2023/08/03 10:52:39;;;;;;;3.65;2.50;;;;;;;17.12;100.00;99761.56;5034847;28;20444;-68
2023/08/03 10:55:22;;;;;;;3.75;2.88;;;;;;;17.12;100.00;99756.19;5023313;28;20058;-68
2023/08/03 10:57:47;;;;;;;5.68;2.70;;;;;;;17.14;100.00;99768.50;5014382;28;20029;-68
2023/08/03 11:00:13;;;;;;;5.50;2.20;;;;;;;17.19;100.00;99778.84;5024327;28;20048;-68
2023/08/03 11:02:42;;;;;;;5.00;2.25;;;;;;;17.25;100.00;99774.69;5021425;28;20102;-68
2023/08/03 11:05:10;;;;;;;5.57;2.58;;;;;;;17.36;100.00;99764.59;5028555;28;20036;-68
2023/08/03 11:07:37;;;;;;;6.03;2.22;;;;;;;17.45;100.00;99778.16;5019508;28;20025;-69
2023/08/03 11:10:06;;;;;;;6.05;2.78;;;;;;;17.60;100.00;99790.16;5020134;28;20442;-68
2023/08/03 11:12:32;;;;;;;5.25;2.70;;;;;;;17.45;100.00;99797.00;5023888;28;20037;-68
2023/08/03 11:15:00;;;;;;;4.80;2.33;;;;;;;17.33;100.00;99794.47;5021156;28;20099;-68
2023/08/03 11:17:27;;;;;;;6.03;2.38;;;;;;;17.38;100.00;99808.34;5022595;28;20036;-68